KLOR/LOR METAR and TAF weather

Enter ICAO airport designator
Station Type Date Time Source
KLOR METAR 2019/02/16 07:33 UTC NOAA

KLOR 160733Z AUTO 19006KT 10SM BKN015 BKN022 BKN034 OVC140 17/16 A2982 RMK AO2 CIG 015V030 BKN015 V SCT SLP080


Station Type Date Time Source
KLOR Decoded METAR 2019/02/16 07:33 UTC NOAA

Fort Rucker, Lowe Army Heliport, AL, United States (KLOR) 31-21-32N 085-44-54W 93M
Feb 16, 2019 - 02:33 AM EST / 2019.02.16 0733 UTC
Wind: from the S (190 degrees) at 7 MPH (6 KT):0
Visibility: 10 mile(s):0
Sky conditions: overcast
Temperature: 62 F (17 C)
Dew Point: 60 F (16 C)
Relative Humidity: 93%
Pressure (altimeter): 29.82 in. Hg (1009 hPa)
ob: KLOR 160733Z AUTO 19006KT 10SM BKN015 BKN022 BKN034 OVC140 17/16 A2982 RMK AO2 CIG 015V030 BKN015 V SCT SLP080
cycle: 7

Station Type Date Time Source
KLOR TAF UTC NOAA

Error!


Example: see airport list